Time;durP1;ratioP1;P1;durP2;ratioP2;P2;SDS_P1;SDS_P2;PMS_P1;PMS_P2;Temp;Humidity;BMP_temperature;BMP_pressure;BME280_temperature;BME280_humidity;BME280_pressure;Samples;Min_cycle;Max_cycle;Signal;HPM_P1;HPM_P2
2023/06/30 00:01:19;;;;;;;8.73;4.90;;;27.90;43.70;;;;;;5029531;28;20640;-50
2023/06/30 00:03:45;;;;;;;6.97;4.63;;;27.90;43.60;;;;;;5027889;28;20221;-51
2023/06/30 00:06:11;;;;;;;6.90;4.93;;;27.90;43.50;;;;;;5029773;28;20243;-48
2023/06/30 00:08:36;;;;;;;7.40;5.30;;;28.00;43.60;;;;;;5023890;28;20219;-49
2023/06/30 00:11:02;;;;;;;5.47;4.40;;;28.10;43.80;;;;;;5027587;28;20277;-49
2023/06/30 00:13:27;;;;;;;5.67;4.47;;;28.10;43.60;;;;;;5030795;28;20268;-48
2023/06/30 00:15:54;;;;;;;5.57;5.10;;;28.10;43.50;;;;;;5023029;28;20190;-49
2023/06/30 00:18:20;;;;;;;9.13;4.87;;;28.20;43.40;;;;;;5029022;28;20197;-53
2023/06/30 00:20:46;;;;;;;4.70;4.30;;;28.30;43.60;;;;;;5021561;28;20594;-51
2023/06/30 00:23:13;;;;;;;7.07;5.10;;;28.20;43.50;;;;;;5019225;28;20461;-50
2023/06/30 00:25:39;;;;;;;4.63;4.30;;;28.30;43.40;;;;;;5011937;28;20261;-50
2023/06/30 00:28:05;;;;;;;5.30;4.80;;;28.20;43.60;;;;;;5025515;28;20476;-53
2023/06/30 00:30:30;;;;;;;8.53;5.03;;;28.20;43.60;;;;;;5027335;28;20229;-51
2023/06/30 00:32:56;;;;;;;4.93;4.43;;;28.20;43.60;;;;;;5028308;28;20231;-50
2023/06/30 00:35:21;;;;;;;4.77;4.40;;;28.20;43.50;;;;;;5029972;28;20200;-51
2023/06/30 00:37:47;;;;;;;5.53;5.03;;;28.30;43.50;;;;;;5025821;28;20212;-52
2023/06/30 00:40:14;;;;;;;6.43;4.90;;;28.30;43.50;;;;;;5019828;28;20649;-51
2023/06/30 00:42:40;;;;;;;6.03;5.43;;;28.10;44.20;;;;;;5018783;28;20675;-51
2023/06/30 00:45:06;;;;;;;5.30;4.80;;;28.00;44.20;;;;;;5024171;28;20535;-49
2023/06/30 00:47:32;;;;;;;4.80;4.40;;;28.10;44.30;;;;;;5020766;28;20442;-49
2023/06/30 00:49:58;;;;;;;7.10;4.57;;;28.10;44.40;;;;;;5014400;28;20444;-51
2023/06/30 00:52:24;;;;;;;5.60;5.10;;;28.10;44.40;;;;;;5014080;28;20228;-52
2023/06/30 00:54:50;;;;;;;5.50;4.90;;;28.10;44.20;;;;;;5018593;28;20440;-52
2023/06/30 00:57:15;;;;;;;5.10;4.67;;;28.10;44.10;;;;;;5020309;28;20462;-51
2023/06/30 00:59:41;;;;;;;5.40;4.87;;;28.00;44.20;;;;;;5015622;28;20597;-54
2023/06/30 01:02:28;;;;;;;5.20;4.80;;;28.10;44.20;;;;;;5014909;28;20197;-50
2023/06/30 01:05:07;;;;;;;5.10;4.60;;;28.10;44.20;;;;;;5022094;28;20197;-49
2023/06/30 01:07:51;;;;;;;5.67;4.57;;;28.10;44.20;;;;;;5019337;28;20452;-50
2023/06/30 01:10:25;;;;;;;5.10;4.60;;;28.00;44.30;;;;;;5012256;28;20429;-50
2023/06/30 01:12:52;;;;;;;5.37;4.87;;;28.00;44.30;;;;;;5025351;28;20452;-49
2023/06/30 01:15:18;;;;;;;5.60;5.07;;;27.90;44.30;;;;;;5024381;28;20467;-50
2023/06/30 01:17:59;;;;;;;7.77;4.73;;;27.80;44.60;;;;;;5030144;28;20444;-49
2023/06/30 01:20:29;;;;;;;6.63;4.70;;;27.80;44.60;;;;;;5028402;28;20579;-51
2023/06/30 01:23:14;;;;;;;5.23;4.83;;;27.70;45.00;;;;;;5015568;28;20495;-50
2023/06/30 01:25:40;;;;;;;5.60;4.60;;;27.60;45.20;;;;;;5031035;28;20478;-52
2023/06/30 01:28:06;;;;;;;5.50;4.57;;;27.60;45.20;;;;;;5015898;28;20441;-52
2023/06/30 01:30:32;;;;;;;5.47;4.97;;;27.40;45.40;;;;;;5023575;28;20535;-50
2023/06/30 01:32:59;;;;;;;5.80;4.70;;;27.30;45.60;;;;;;5024535;28;20452;-49
2023/06/30 01:35:28;;;;;;;4.90;4.20;;;27.30;45.60;;;;;;5025807;28;20456;-49
2023/06/30 01:37:54;;;;;;;6.70;4.70;;;27.40;45.60;;;;;;5029314;28;20450;-52
2023/06/30 01:40:21;;;;;;;5.87;4.50;;;27.40;45.40;;;;;;5019556;28;20968;-52
2023/06/30 01:42:50;;;;;;;6.90;4.60;;;27.40;45.50;;;;;;5025251;28;20809;-50
2023/06/30 01:45:17;;;;;;;5.33;4.93;;;27.50;45.40;;;;;;5027538;28;20477;-50
2023/06/30 01:47:43;;;;;;;5.80;5.33;;;27.50;45.30;;;;;;5019303;28;20447;-48
2023/06/30 01:50:10;;;;;;;5.27;4.87;;;27.60;45.20;;;;;;5022816;28;20459;-53
2023/06/30 01:52:35;;;;;;;6.20;5.60;;;27.60;45.20;;;;;;5028324;28;20522;-48
2023/06/30 01:55:02;;;;;;;5.60;5.00;;;27.60;45.10;;;;;;5024154;28;20451;-48
2023/06/30 01:57:28;;;;;;;5.60;5.10;;;27.70;45.10;;;;;;5021472;28;20185;-53
2023/06/30 01:59:53;;;;;;;5.70;5.20;;;27.60;45.10;;;;;;5012309;28;20487;-49
2023/06/30 02:02:19;;;;;;;7.70;5.27;;;27.70;45.10;;;;;;5026156;28;20570;-50
2023/06/30 02:04:45;;;;;;;6.33;5.13;;;27.70;45.40;;;;;;5016319;28;20198;-50
2023/06/30 02:07:10;;;;;;;5.80;5.30;;;27.60;45.40;;;;;;5017814;28;20201;-49
2023/06/30 02:09:36;;;;;;;6.57;5.57;;;27.60;45.30;;;;;;5016682;28;20201;-49
2023/06/30 02:12:01;;;;;;;9.20;5.40;;;27.60;45.30;;;;;;5029289;28;20623;-49
2023/06/30 02:14:27;;;;;;;5.80;4.93;;;27.60;45.40;;;;;;5017929;28;20193;-51
2023/06/30 02:16:52;;;;;;;5.83;5.23;;;27.50;45.40;;;;;;5012248;28;20201;-49
2023/06/30 02:19:18;;;;;;;5.13;4.70;;;27.50;45.50;;;;;;5016964;28;20277;-52
2023/06/30 02:21:44;;;;;;;5.00;4.60;;;27.50;46.10;;;;;;5017311;28;20212;-48
2023/06/30 02:24:11;;;;;;;5.80;4.20;;;27.50;45.60;;;;;;5026947;28;20193;-49
2023/06/30 02:26:36;;;;;;;9.60;5.33;;;27.40;45.60;;;;;;5024932;28;20197;-48
2023/06/30 02:29:02;;;;;;;4.80;4.40;;;27.40;45.60;;;;;;5015660;28;20429;-49
2023/06/30 02:31:27;;;;;;;6.30;5.80;;;27.40;45.60;;;;;;5023726;28;20224;-48
2023/06/30 02:33:54;;;;;;;5.80;5.30;;;27.40;45.70;;;;;;5014512;28;20224;-50
2023/06/30 02:36:19;;;;;;;5.50;5.00;;;27.40;45.80;;;;;;5022945;28;20193;-51
2023/06/30 02:38:45;;;;;;;5.63;5.10;;;27.40;46.00;;;;;;5029183;28;20493;-51
2023/06/30 02:41:10;;;;;;;5.30;4.80;;;27.40;46.20;;;;;;5027750;28;20415;-52
2023/06/30 02:43:36;;;;;;;5.70;4.83;;;27.30;46.00;;;;;;5025522;28;20201;-49
2023/06/30 02:46:01;;;;;;;5.37;4.90;;;27.30;45.90;;;;;;5025392;28;20189;-49
2023/06/30 02:48:27;;;;;;;5.57;5.07;;;27.40;45.90;;;;;;5014532;28;20189;-48
2023/06/30 02:50:52;;;;;;;5.63;5.20;;;27.30;46.00;;;;;;5013608;28;20197;-49
2023/06/30 02:53:18;;;;;;;6.53;5.53;;;27.20;46.10;;;;;;5017556;28;20891;-50
2023/06/30 02:55:44;;;;;;;5.00;4.60;;;27.20;46.10;;;;;;5016547;28;20711;-49
2023/06/30 02:58:09;;;;;;;5.57;4.60;;;27.30;46.00;;;;;;5021265;28;20209;-49
2023/06/30 03:00:36;;;;;;;5.40;4.60;;;27.30;46.00;;;;;;5014952;28;21323;-48
2023/06/30 03:03:04;;;;;;;5.80;5.30;;;27.20;46.00;;;;;;5019514;28;20192;-48
2023/06/30 03:05:30;;;;;;;5.30;4.90;;;27.20;46.00;;;;;;5031810;28;20810;-49
2023/06/30 03:07:55;;;;;;;5.50;5.00;;;27.30;46.00;;;;;;5023235;28;20474;-50
2023/06/30 03:10:21;;;;;;;7.43;5.23;;;27.30;46.10;;;;;;5027876;28;20574;-49
2023/06/30 03:12:46;;;;;;;5.63;5.20;;;27.20;46.10;;;;;;5022811;28;20185;-50
2023/06/30 03:15:12;;;;;;;5.67;4.93;;;27.20;46.30;;;;;;5019441;28;20227;-54
2023/06/30 03:17:38;;;;;;;5.13;4.73;;;27.10;46.50;;;;;;5023721;28;20650;-49
2023/06/30 03:20:10;;;;;;;4.63;4.23;;;27.10;46.30;;;;;;5019383;28;20224;-50
2023/06/30 03:22:36;;;;;;;5.33;4.93;;;27.10;46.30;;;;;;5017019;28;20202;-48
2023/06/30 03:25:01;;;;;;;5.40;4.90;;;27.10;46.60;;;;;;5021660;28;20468;-49
2023/06/30 03:27:27;;;;;;;6.30;5.67;;;27.10;46.50;;;;;;5021504;28;20213;-50
2023/06/30 03:29:52;;;;;;;5.40;5.00;;;27.10;46.50;;;;;;5017779;28;20194;-49
2023/06/30 03:32:18;;;;;;;5.47;5.03;;;27.10;46.80;;;;;;5013765;28;20194;-48
2023/06/30 03:34:44;;;;;;;5.90;5.40;;;27.00;46.90;;;;;;5020706;28;20665;-49
2023/06/30 03:37:09;;;;;;;7.13;5.63;;;27.00;47.00;;;;;;5024103;28;20213;-50
2023/06/30 03:39:35;;;;;;;5.50;5.00;;;26.90;47.00;;;;;;5020591;28;20265;-50
2023/06/30 03:42:00;;;;;;;7.83;5.60;;;26.80;47.60;;;;;;5025287;28;20203;-50
2023/06/30 03:44:27;;;;;;;5.87;5.30;;;26.60;47.90;;;;;;5018482;28;20259;-48
2023/06/30 03:46:53;;;;;;;6.00;5.47;;;26.20;48.90;;;;;;5032687;28;20208;-48
2023/06/30 03:49:19;;;;;;;6.93;5.47;;;26.00;49.50;;;;;;5032122;28;20521;-50
2023/06/30 03:51:45;;;;;;;6.13;5.53;;;25.70;50.20;;;;;;5029952;28;20444;-50
2023/06/30 03:54:11;;;;;;;6.10;5.50;;;25.70;50.20;;;;;;5022179;28;20734;-48
2023/06/30 03:56:36;;;;;;;6.87;6.10;;;25.70;50.20;;;;;;5025726;28;20530;-48
2023/06/30 03:59:02;;;;;;;6.03;5.37;;;25.80;49.70;;;;;;5030010;28;20197;-48
2023/06/30 04:01:28;;;;;;;5.67;5.27;;;25.60;50.40;;;;;;5022165;28;20725;-50
2023/06/30 04:03:54;;;;;;;5.47;5.07;;;25.80;50.10;;;;;;5014855;28;20193;-51
2023/06/30 04:06:19;;;;;;;5.13;4.77;;;26.00;49.60;;;;;;5028572;28;20495;-54
2023/06/30 04:08:45;;;;;;;6.70;6.00;;;26.10;49.30;;;;;;5027389;28;20194;-49
2023/06/30 04:11:11;;;;;;;6.60;6.10;;;25.90;49.90;;;;;;5028122;28;20193;-49
2023/06/30 04:13:37;;;;;;;6.50;6.00;;;25.90;49.90;;;;;;5030138;28;20439;-51
2023/06/30 04:16:02;;;;;;;6.90;5.67;;;25.90;49.80;;;;;;5026732;28;21200;-48
2023/06/30 04:18:28;;;;;;;7.20;5.20;;;25.90;49.90;;;;;;5030644;28;20186;-50
2023/06/30 04:20:53;;;;;;;6.30;5.80;;;26.00;49.60;;;;;;5022686;28;20251;-48
2023/06/30 04:23:19;;;;;;;6.17;5.73;;;26.20;49.20;;;;;;5020510;28;20193;-49
2023/06/30 04:25:45;;;;;;;8.03;5.97;;;26.10;49.50;;;;;;5029327;28;20316;-50
2023/06/30 04:28:11;;;;;;;7.90;5.73;;;26.20;49.40;;;;;;5029834;28;20197;-48
2023/06/30 04:30:37;;;;;;;5.70;5.20;;;26.30;49.10;;;;;;5022420;28;20856;-49
2023/06/30 04:33:02;;;;;;;5.83;5.30;;;26.30;49.10;;;;;;5027358;28;20197;-48
2023/06/30 04:35:28;;;;;;;7.73;6.20;;;26.30;49.20;;;;;;5022679;28;20571;-50
2023/06/30 04:37:53;;;;;;;6.33;5.73;;;26.40;49.00;;;;;;5022461;28;20959;-51
2023/06/30 04:40:19;;;;;;;10.40;5.80;;;26.40;49.00;;;;;;5021120;28;20286;-53
2023/06/30 04:42:45;;;;;;;8.83;6.30;;;26.40;48.90;;;;;;5015881;28;20204;-49
2023/06/30 04:45:10;;;;;;;8.03;6.30;;;26.40;48.90;;;;;;5014600;28;20198;-48
2023/06/30 04:47:36;;;;;;;6.37;5.63;;;26.30;49.30;;;;;;5016116;28;20204;-50
2023/06/30 04:50:02;;;;;;;7.50;6.33;;;26.40;49.30;;;;;;5019566;28;20243;-50
2023/06/30 04:52:28;;;;;;;6.70;6.10;;;26.50;48.80;;;;;;5017464;28;20208;-52
2023/06/30 04:54:56;;;;;;;8.73;6.07;;;26.60;48.50;;;;;;5016809;28;20444;-49
2023/06/30 04:57:22;;;;;;;6.60;6.10;;;26.70;48.30;;;;;;5018525;28;20251;-49
2023/06/30 04:59:50;;;;;;;7.10;6.40;;;26.80;48.00;;;;;;5016589;28;20510;-48
2023/06/30 05:02:17;;;;;;;6.23;5.63;;;26.70;48.40;;;;;;5020725;28;20456;-48
2023/06/30 05:04:42;;;;;;;6.43;6.03;;;26.80;48.30;;;;;;5016492;28;20531;-49
2023/06/30 05:07:09;;;;;;;6.63;6.03;;;26.80;48.20;;;;;;5027242;28;21015;-49
2023/06/30 05:09:35;;;;;;;6.30;5.70;;;26.80;48.20;;;;;;5027288;28;20202;-51
2023/06/30 05:12:02;;;;;;;6.07;5.53;;;26.80;47.90;;;;;;5026928;28;20455;-48
2023/06/30 05:14:28;;;;;;;7.50;6.80;;;26.80;48.00;;;;;;5030295;28;20819;-50
2023/06/30 05:16:54;;;;;;;6.13;5.23;;;26.90;48.40;;;;;;5029206;28;20428;-50
2023/06/30 05:19:19;;;;;;;7.00;5.83;;;26.90;48.20;;;;;;5022562;28;20190;-53
2023/06/30 05:21:45;;;;;;;7.23;6.73;;;26.90;48.20;;;;;;5015100;28;20237;-49
2023/06/30 05:24:11;;;;;;;7.47;6.80;;;26.80;48.30;;;;;;5012733;28;20204;-50
2023/06/30 05:26:36;;;;;;;7.70;7.00;;;26.90;48.60;;;;;;5021188;28;20225;-52
2023/06/30 05:29:02;;;;;;;6.93;6.33;;;26.80;48.50;;;;;;5018451;28;20597;-49
2023/06/30 05:31:27;;;;;;;7.83;7.03;;;26.80;48.90;;;;;;5022926;28;20193;-50
2023/06/30 05:33:53;;;;;;;16.83;7.27;;;26.80;49.30;;;;;;5016856;28;20688;-49
2023/06/30 05:36:19;;;;;;;7.93;6.60;;;26.80;50.00;;;;;;5017913;28;20649;-50
2023/06/30 05:38:45;;;;;;;7.80;7.00;;;26.70;50.50;;;;;;5016467;28;20194;-55
2023/06/30 05:41:11;;;;;;;9.23;7.50;;;26.60;50.90;;;;;;5013266;28;20500;-51
2023/06/30 05:43:36;;;;;;;8.97;7.80;;;26.60;51.30;;;;;;5027148;28;20239;-53
2023/06/30 05:46:03;;;;;;;7.67;7.07;;;26.60;51.90;;;;;;5025554;28;20223;-51
2023/06/30 05:48:28;;;;;;;8.80;7.90;;;26.60;52.00;;;;;;5021189;28;20197;-54
2023/06/30 05:50:54;;;;;;;10.37;8.50;;;26.60;52.00;;;;;;5025359;28;20444;-50
2023/06/30 05:53:19;;;;;;;10.53;8.93;;;26.70;52.40;;;;;;5016618;28;20208;-52
2023/06/30 05:55:45;;;;;;;9.83;7.80;;;26.70;52.90;;;;;;5025045;28;20198;-55
2023/06/30 05:58:10;;;;;;;9.40;8.47;;;26.70;53.10;;;;;;5028297;28;20228;-53
2023/06/30 06:00:36;;;;;;;9.73;8.70;;;26.70;53.40;;;;;;5022772;28;20763;-51
2023/06/30 06:03:02;;;;;;;8.10;7.40;;;26.70;53.90;;;;;;5024027;28;20268;-53
2023/06/30 06:05:27;;;;;;;8.60;6.60;;;26.60;54.10;;;;;;5029231;28;20204;-53
2023/06/30 06:07:53;;;;;;;7.80;6.70;;;26.60;53.10;;;;;;5026906;28;20720;-56
2023/06/30 06:10:19;;;;;;;7.17;6.13;;;26.60;52.40;;;;;;5021940;28;20201;-54
2023/06/30 06:12:44;;;;;;;9.50;6.77;;;26.70;51.90;;;;;;5026215;28;20209;-54
2023/06/30 06:15:10;;;;;;;7.40;6.70;;;26.70;51.60;;;;;;5030183;28;20228;-54
2023/06/30 06:17:36;;;;;;;8.17;7.37;;;26.80;51.20;;;;;;5030003;28;20221;-52
2023/06/30 06:20:02;;;;;;;7.90;7.20;;;26.90;51.40;;;;;;5023070;28;20233;-54
2023/06/30 06:22:27;;;;;;;9.70;8.20;;;27.00;52.50;;;;;;5011248;28;20198;-50
2023/06/30 06:24:53;;;;;;;10.53;8.40;;;26.80;53.90;;;;;;5027576;28;21026;-51
2023/06/30 06:27:18;;;;;;;11.17;9.73;;;26.50;54.70;;;;;;5028826;28;20201;-52
2023/06/30 06:29:44;;;;;;;9.17;7.47;;;26.30;55.90;;;;;;5023465;28;22118;-52
2023/06/30 06:32:10;;;;;;;12.77;7.83;;;26.20;55.80;;;;;;5021692;28;20197;-55
2023/06/30 06:34:35;;;;;;;18.30;11.60;;;26.20;55.30;;;;;;5021217;28;20221;-51
2023/06/30 06:37:01;;;;;;;20.40;14.40;;;26.30;55.40;;;;;;5025829;28;20208;-51
2023/06/30 06:39:27;;;;;;;9.27;7.83;;;26.40;54.80;;;;;;5025166;28;20199;-50
2023/06/30 06:41:52;;;;;;;9.53;8.57;;;26.40;54.30;;;;;;5021106;28;20197;-50
2023/06/30 06:44:18;;;;;;;10.17;7.37;;;26.50;53.80;;;;;;5021286;28;20189;-50
2023/06/30 06:46:43;;;;;;;9.70;7.23;;;26.50;53.10;;;;;;5029498;28;20600;-51
2023/06/30 06:49:09;;;;;;;10.00;8.33;;;26.60;52.70;;;;;;5016125;28;20193;-51
2023/06/30 06:51:35;;;;;;;8.63;7.80;;;26.80;53.60;;;;;;5011076;28;20679;-50
2023/06/30 06:54:01;;;;;;;8.37;7.40;;;26.80;53.00;;;;;;5018361;28;20209;-50
2023/06/30 06:56:26;;;;;;;9.03;8.13;;;26.80;53.40;;;;;;5026444;28;20189;-51
2023/06/30 06:58:52;;;;;;;9.83;7.63;;;26.90;53.20;;;;;;5024005;28;20566;-50
2023/06/30 07:01:17;;;;;;;11.73;7.80;;;27.00;53.10;;;;;;5024462;28;20648;-53
2023/06/30 07:03:43;;;;;;;10.40;6.80;;;27.00;53.10;;;;;;5025846;28;20200;-50
2023/06/30 07:06:09;;;;;;;10.60;7.57;;;27.00;53.20;;;;;;5028046;28;20267;-51
2023/06/30 07:08:35;;;;;;;8.30;7.20;;;27.20;53.10;;;;;;5026221;28;20185;-51
2023/06/30 07:11:06;;;;;;;19.63;8.93;;;27.20;52.90;;;;;;5019155;28;20199;-49
2023/06/30 07:13:35;;;;;;;17.70;8.77;;;27.30;52.80;;;;;;5012310;28;20842;-61
2023/06/30 07:16:01;;;;;;;13.77;8.83;;;27.40;52.80;;;;;;5024843;28;20807;-51
2023/06/30 07:18:26;;;;;;;9.53;7.23;;;27.40;53.60;;;;;;5026942;28;20537;-49
2023/06/30 07:20:54;;;;;;;13.23;8.23;;;27.20;55.00;;;;;;5027707;28;20225;-51
2023/06/30 07:23:19;;;;;;;9.73;7.70;;;27.20;54.40;;;;;;5024621;28;20197;-52
2023/06/30 07:25:46;;;;;;;19.60;7.90;;;27.20;54.30;;;;;;5026100;28;20521;-50
2023/06/30 07:28:11;;;;;;;16.83;8.33;;;27.20;54.50;;;;;;5011718;28;20221;-56
2023/06/30 07:30:39;;;;;;;11.10;8.60;;;27.00;56.30;;;;;;5017738;28;20806;-53
2023/06/30 07:33:05;;;;;;;14.10;9.33;;;26.80;56.40;;;;;;5017921;28;20554;-53
2023/06/30 07:35:30;;;;;;;8.70;7.80;;;26.90;55.80;;;;;;5023739;28;20448;-53
2023/06/30 07:37:56;;;;;;;11.80;7.80;;;27.00;55.70;;;;;;5026447;28;20198;-53
2023/06/30 07:40:22;;;;;;;12.60;8.80;;;27.10;55.70;;;;;;5018305;28;20635;-53
2023/06/30 07:42:47;;;;;;;13.80;9.40;;;27.20;55.40;;;;;;5025490;28;20197;-51
2023/06/30 07:45:15;;;;;;;13.50;8.57;;;27.30;55.10;;;;;;5020439;28;20250;-56
2023/06/30 07:47:42;;;;;;;12.77;8.63;;;27.40;54.90;;;;;;5026855;28;20236;-57
2023/06/30 07:50:12;;;;;;;9.37;8.10;;;27.40;54.90;;;;;;5031156;28;20514;-57
2023/06/30 07:52:42;;;;;;;9.53;8.00;;;27.50;55.00;;;;;;5026098;28;20543;-58
2023/06/30 07:55:08;;;;;;;10.20;8.47;;;27.60;54.70;;;;;;5021671;28;20449;-58
2023/06/30 07:57:34;;;;;;;10.63;9.57;;;27.70;54.60;;;;;;5023403;28;20440;-52
2023/06/30 08:00:00;;;;;;;10.00;8.83;;;27.80;55.10;;;;;;5026141;28;20492;-55
2023/06/30 08:02:25;;;;;;;10.93;9.83;;;27.80;54.90;;;;;;5024417;28;20197;-50
2023/06/30 08:04:51;;;;;;;12.10;10.27;;;27.80;54.80;;;;;;5027009;28;20205;-56
2023/06/30 08:07:16;;;;;;;13.40;9.33;;;27.70;56.10;;;;;;5029294;28;20232;-50
2023/06/30 08:09:42;;;;;;;11.40;10.30;;;27.60;56.40;;;;;;5025696;28;20653;-51
2023/06/30 08:12:08;;;;;;;11.70;9.97;;;27.60;56.60;;;;;;5027422;28;20197;-55
2023/06/30 08:14:35;;;;;;;11.47;10.27;;;27.60;56.80;;;;;;5023189;28;20201;-53
2023/06/30 08:17:01;;;;;;;11.20;10.10;;;27.50;56.70;;;;;;5023436;28;20468;-54
2023/06/30 08:19:27;;;;;;;12.67;10.40;;;27.60;56.50;;;;;;5028704;28;20440;-52
2023/06/30 08:21:53;;;;;;;11.33;10.10;;;27.60;56.60;;;;;;5020000;28;20510;-55
2023/06/30 08:24:18;;;;;;;9.83;8.73;;;27.50;56.70;;;;;;5020012;28;20233;-53
2023/06/30 08:26:44;;;;;;;14.57;9.60;;;27.50;56.30;;;;;;5022686;28;20232;-52
2023/06/30 08:29:09;;;;;;;9.87;7.93;;;27.60;55.60;;;;;;5028622;28;20763;-50
2023/06/30 08:31:36;;;;;;;10.93;8.80;;;27.70;55.40;;;;;;5013453;28;20204;-54
2023/06/30 08:34:02;;;;;;;12.60;10.27;;;27.70;55.20;;;;;;5018637;28;20202;-51
2023/06/30 08:36:27;;;;;;;12.30;10.13;;;27.70;55.60;;;;;;5017307;28;20459;-53
2023/06/30 08:38:53;;;;;;;15.93;9.63;;;27.70;55.90;;;;;;5020371;28;20219;-51
2023/06/30 08:41:19;;;;;;;12.37;10.07;;;27.80;55.70;;;;;;5018500;28;20787;-54
2023/06/30 08:43:46;;;;;;;13.90;10.43;;;27.80;55.90;;;;;;5020483;28;20236;-51
2023/06/30 08:46:13;;;;;;;11.50;10.27;;;27.80;55.70;;;;;;5016298;28;20700;-54
2023/06/30 08:48:40;;;;;;;12.37;11.03;;;27.80;55.50;;;;;;5015545;28;20603;-50
2023/06/30 08:51:06;;;;;;;12.50;11.27;;;27.70;55.90;;;;;;5022921;28;20455;-52
2023/06/30 08:53:33;;;;;;;13.53;10.87;;;27.30;56.90;;;;;;5024065;28;20448;-49
2023/06/30 08:55:59;;;;;;;12.37;11.00;;;27.20;57.70;;;;;;5016736;28;20490;-49
2023/06/30 08:58:28;;;;;;;16.97;11.73;;;27.20;57.70;;;;;;5020026;28;20482;-49
2023/06/30 09:00:55;;;;;;;17.43;13.30;;;27.10;57.40;;;;;;5023736;28;20494;-51
2023/06/30 09:03:21;;;;;;;16.60;13.10;;;27.00;57.60;;;;;;5023228;28;20440;-51
2023/06/30 09:05:49;;;;;;;14.23;11.97;;;27.00;57.70;;;;;;5013787;28;20441;-49
2023/06/30 09:08:21;;;;;;;16.77;13.40;;;27.00;58.00;;;;;;5015883;28;20440;-53
2023/06/30 09:10:48;;;;;;;15.63;13.80;;;27.10;57.80;;;;;;5015467;28;20649;-49
2023/06/30 09:13:17;;;;;;;18.57;14.10;;;27.20;57.90;;;;;;5023588;28;20450;-54
2023/06/30 09:15:44;;;;;;;15.40;12.77;;;27.10;58.10;;;;;;5020407;28;20981;-51
2023/06/30 09:18:10;;;;;;;19.13;15.03;;;27.20;58.20;;;;;;5018673;28;21198;-52
2023/06/30 09:20:37;;;;;;;20.40;17.07;;;27.20;57.80;;;;;;5020914;28;20497;-49
2023/06/30 09:23:04;;;;;;;18.90;14.10;;;27.30;57.60;;;;;;5024308;28;20443;-53
2023/06/30 09:25:32;;;;;;;20.60;15.80;;;27.40;57.40;;;;;;5022232;28;20483;-49
2023/06/30 09:27:58;;;;;;;20.37;16.40;;;27.40;57.50;;;;;;5022540;28;20539;-49
2023/06/30 09:30:38;;;;;;;19.83;15.37;;;27.40;57.20;;;;;;5027531;28;20594;-49
2023/06/30 09:33:05;;;;;;;20.27;15.57;;;27.40;57.50;;;;;;5022565;28;20197;-49
2023/06/30 09:35:42;;;;;;;18.23;15.37;;;27.30;57.70;;;;;;5021130;28;20446;-50
2023/06/30 09:38:15;;;;;;;22.07;16.53;;;27.30;57.90;;;;;;5027507;28;20506;-49
2023/06/30 09:40:45;;;;;;;20.57;15.70;;;27.30;58.00;;;;;;5021905;28;20498;-50
2023/06/30 09:43:19;;;;;;;17.13;14.20;;;27.30;58.00;;;;;;5017408;28;20440;-51
2023/06/30 09:45:47;;;;;;;23.03;14.53;;;27.30;58.00;;;;;;5018618;28;21017;-51
2023/06/30 09:48:13;;;;;;;18.80;15.33;;;27.30;57.90;;;;;;5015043;28;20442;-49
2023/06/30 09:50:43;;;;;;;17.40;15.00;;;27.30;58.00;;;;;;5016387;28;20468;-52
2023/06/30 09:53:09;;;;;;;26.67;18.90;;;27.40;58.50;;;;;;5018096;28;21140;-50
2023/06/30 09:55:48;;;;;;;18.77;16.77;;;27.40;58.60;;;;;;5014131;28;20439;-48
2023/06/30 09:58:14;;;;;;;22.27;17.00;;;27.40;58.40;;;;;;5015294;28;20644;-51
2023/06/30 10:00:41;;;;;;;18.40;16.47;;;27.40;58.60;;;;;;5021653;28;20493;-51
2023/06/30 10:03:08;;;;;;;20.43;18.33;;;27.40;58.80;;;;;;5018756;28;20935;-50
2023/06/30 10:05:34;;;;;;;20.00;16.70;;;27.40;59.00;;;;;;5018331;28;20444;-50
2023/06/30 10:08:00;;;;;;;25.80;20.20;;;27.40;59.30;;;;;;5009473;28;20523;-53
2023/06/30 10:10:27;;;;;;;17.90;15.90;;;27.40;59.20;;;;;;5026510;28;20227;-51
2023/06/30 10:12:53;;;;;;;18.40;16.20;;;27.40;59.20;;;;;;5016098;28;20928;-49
2023/06/30 10:15:19;;;;;;;22.67;17.00;;;27.30;59.30;;;;;;5017561;28;20515;-50
2023/06/30 10:17:47;;;;;;;18.67;16.00;;;27.30;59.50;;;;;;5019982;28;20452;-52
2023/06/30 10:20:12;;;;;;;19.57;16.07;;;27.20;59.60;;;;;;5023004;28;20216;-50
2023/06/30 10:22:38;;;;;;;19.13;15.93;;;27.20;59.50;;;;;;5010523;28;20436;-53
2023/06/30 10:25:08;;;;;;;17.83;15.93;;;27.20;59.30;;;;;;5022558;28;20232;-50
2023/06/30 10:27:35;;;;;;;17.83;15.87;;;27.20;59.00;;;;;;5020236;28;20441;-49
2023/06/30 10:30:02;;;;;;;18.53;14.83;;;27.30;59.00;;;;;;5016952;28;20447;-49
2023/06/30 10:32:27;;;;;;;21.60;15.13;;;27.20;59.50;;;;;;5014573;28;20992;-49
2023/06/30 10:34:54;;;;;;;18.40;15.57;;;27.20;59.70;;;;;;5023812;28;20542;-50
2023/06/30 10:37:20;;;;;;;20.47;14.83;;;27.20;59.80;;;;;;5024253;28;20215;-54
2023/06/30 10:39:46;;;;;;;16.07;13.60;;;27.30;59.90;;;;;;5013622;28;20445;-49
2023/06/30 10:42:12;;;;;;;17.60;15.40;;;27.30;59.70;;;;;;5016577;28;20956;-48
2023/06/30 10:44:45;;;;;;;15.53;12.97;;;27.30;60.00;;;;;;5007321;28;20440;-51
2023/06/30 10:47:12;;;;;;;15.23;13.67;;;27.30;60.00;;;;;;5013163;28;20797;-51
2023/06/30 10:49:40;;;;;;;18.03;15.53;;;27.30;59.70;;;;;;5026678;28;20502;-52
2023/06/30 10:52:10;;;;;;;14.67;13.20;;;27.30;59.50;;;;;;5020567;28;20939;-48
2023/06/30 10:54:46;;;;;;;17.03;15.23;;;27.40;59.60;;;;;;5019254;28;20448;-49
2023/06/30 10:57:16;;;;;;;16.93;15.27;;;27.40;59.80;;;;;;5018287;28;20459;-49
2023/06/30 10:59:43;;;;;;;15.63;14.00;;;27.30;59.80;;;;;;5008495;28;20443;-50
2023/06/30 11:02:18;;;;;;;18.07;14.47;;;27.30;60.00;;;;;;5025427;28;20439;-49
2023/06/30 11:04:46;;;;;;;16.30;14.80;;;27.10;60.20;;;;;;5018021;28;20516;-48
2023/06/30 11:07:26;;;;;;;18.20;15.27;;;27.00;60.60;;;;;;5019433;28;21083;-49
2023/06/30 11:09:51;;;;;;;19.37;17.33;;;26.80;61.50;;;;;;5021408;28;20855;-48
2023/06/30 11:12:25;;;;;;;18.47;16.60;;;26.70;61.90;;;;;;5016488;28;20456;-48
2023/06/30 11:14:57;;;;;;;18.87;16.87;;;26.70;61.90;;;;;;5010839;28;20189;-52
2023/06/30 11:17:28;;;;;;;18.80;16.90;;;26.70;62.90;;;;;;5022751;28;20448;-53
2023/06/30 11:20:10;;;;;;;19.43;17.43;;;26.70;62.30;;;;;;5013188;28;20445;-50
2023/06/30 11:22:36;;;;;;;20.20;18.10;;;26.80;62.00;;;;;;5025128;28;20471;-48
2023/06/30 11:25:11;;;;;;;20.17;18.17;;;26.80;61.80;;;;;;5023815;28;20472;-49
2023/06/30 11:27:40;;;;;;;22.77;18.20;;;26.70;62.10;;;;;;5022296;28;20197;-49
2023/06/30 11:30:07;;;;;;;21.77;19.07;;;26.80;62.70;;;;;;5027550;28;20780;-48
2023/06/30 11:32:35;;;;;;;21.80;19.70;;;26.80;62.60;;;;;;5022313;28;20447;-48
2023/06/30 11:35:07;;;;;;;20.60;18.40;;;26.90;62.80;;;;;;5013690;28;20452;-48
2023/06/30 11:37:36;;;;;;;21.57;19.10;;;26.80;62.50;;;;;;5018119;28;20601;-48
2023/06/30 11:40:04;;;;;;;21.80;19.13;;;26.80;62.70;;;;;;5017979;28;20955;-50
2023/06/30 11:42:29;;;;;;;21.67;19.37;;;26.70;62.30;;;;;;5023572;28;20440;-52
2023/06/30 11:44:55;;;;;;;27.77;20.20;;;26.70;62.60;;;;;;5018016;28;20451;-48
2023/06/30 11:47:21;;;;;;;23.93;21.50;;;26.60;63.00;;;;;;5018142;28;20202;-48
2023/06/30 11:49:48;;;;;;;26.03;23.23;;;26.80;63.00;;;;;;5026479;28;20331;-57
2023/06/30 11:52:15;;;;;;;24.87;22.00;;;26.70;62.60;;;;;;5023238;28;20221;-53
2023/06/30 11:54:41;;;;;;;24.07;21.63;;;26.60;62.80;;;;;;5028124;28;20447;-50
2023/06/30 11:57:08;;;;;;;26.00;23.30;;;26.80;63.10;;;;;;5022477;28;20455;-51
2023/06/30 11:59:34;;;;;;;26.93;24.13;;;26.90;62.80;;;;;;5021533;28;20197;-48
2023/06/30 12:02:00;;;;;;;26.93;24.40;;;26.80;62.10;;;;;;5020136;28;20495;-50
2023/06/30 12:04:26;;;;;;;25.50;22.90;;;26.80;62.00;;;;;;5003748;28;20185;-51
2023/06/30 12:06:55;;;;;;;28.53;24.50;;;26.90;61.80;;;;;;5023285;28;24149;-48
2023/06/30 12:09:22;;;;;;;26.40;23.77;;;26.80;62.10;;;;;;5017791;28;20440;-48
2023/06/30 12:11:49;;;;;;;29.77;26.60;;;26.90;62.40;;;;;;5022154;28;20454;-47
2023/06/30 12:14:18;;;;;;;30.27;26.43;;;26.90;61.60;;;;;;5014808;28;20456;-48
2023/06/30 12:16:51;;;;;;;26.93;23.63;;;26.80;62.30;;;;;;5025033;28;20444;-48
2023/06/30 12:19:18;;;;;;;27.60;24.80;;;26.80;62.50;;;;;;5023096;28;20471;-50
2023/06/30 12:22:12;;;;;;;30.60;25.40;;;26.80;62.00;;;;;;5021349;28;20487;-49
2023/06/30 12:24:39;;;;;;;27.67;23.60;;;26.90;61.90;;;;;;5020249;28;20598;-49
2023/06/30 12:27:06;;;;;;;29.30;24.57;;;27.00;61.60;;;;;;5023267;28;20546;-47
2023/06/30 12:29:35;;;;;;;26.43;23.63;;;26.90;61.30;;;;;;5022183;28;20558;-48
2023/06/30 12:32:10;;;;;;;27.33;24.40;;;27.10;61.40;;;;;;5019635;28;20527;-50
2023/06/30 12:34:36;;;;;;;24.43;22.03;;;27.10;61.00;;;;;;5022432;28;20419;-52
2023/06/30 12:37:03;;;;;;;26.13;23.43;;;27.10;60.40;;;;;;5020265;28;20998;-48